createdAt,value
2022-10-26T03:46:32.620Z,5.57
2022-10-26T03:49:36.069Z,5.40
2022-10-26T03:52:38.796Z,5.15
2022-10-26T03:55:44.658Z,5.97
2022-10-26T03:58:47.012Z,6.93
2022-10-26T04:01:52.754Z,7.05
2022-10-26T04:04:58.130Z,5.78
2022-10-26T04:08:04.685Z,5.82
2022-10-26T04:11:07.387Z,6.10
2022-10-26T04:14:09.640Z,6.37
2022-10-26T04:17:12.243Z,10.18
2022-10-26T04:20:15.265Z,8.27
2022-10-26T04:23:19.516Z,7.87
2022-10-26T04:26:21.829Z,7.30
2022-10-26T04:29:24.468Z,6.72
2022-10-26T04:32:27.020Z,5.53
2022-10-26T04:35:30.211Z,6.00
2022-10-26T04:38:32.573Z,5.75
2022-10-26T04:41:35.131Z,6.10
2022-10-26T04:44:37.422Z,6.65
2022-10-26T04:47:40.674Z,6.47
2022-10-26T04:50:42.957Z,6.93
2022-10-26T04:53:45.490Z,7.00
2022-10-26T04:56:47.723Z,6.32
2022-10-26T04:59:50.655Z,6.85
2022-10-26T05:03:02.865Z,7.18
2022-10-26T05:06:05.665Z,7.57
2022-10-26T05:09:08.011Z,7.22
2022-10-26T05:12:10.577Z,7.20
2022-10-26T05:15:15.071Z,7.47
2022-10-26T05:18:17.850Z,7.75
2022-10-26T05:21:20.225Z,7.57
2022-10-26T05:24:22.831Z,7.07
2022-10-26T05:27:25.181Z,8.45
2022-10-26T05:30:29.956Z,9.20
2022-10-26T05:33:32.230Z,7.87
2022-10-26T05:36:34.726Z,9.13
2022-10-26T05:39:37.035Z,8.05
2022-10-26T05:42:39.611Z,9.02
2022-10-26T05:45:41.870Z,8.57
2022-10-26T05:48:44.543Z,9.83
2022-10-26T05:51:46.897Z,9.48
2022-10-26T05:54:49.500Z,10.87
2022-10-26T05:57:52.144Z,10.88
2022-10-26T06:01:20.202Z,13.07
2022-10-26T06:04:38.750Z,13.45
2022-10-26T06:07:41.504Z,13.75
2022-10-26T06:10:44.321Z,13.77
2022-10-26T06:13:46.956Z,13.18
2022-10-26T06:16:57.563Z,14.55
2022-10-26T06:20:22.257Z,15.30
2022-10-26T06:23:44.864Z,14.27
2022-10-26T06:27:15.768Z,13.10
2022-10-26T06:30:23.316Z,12.88
2022-10-26T06:33:30.631Z,14.45
2022-10-26T06:36:34.102Z,12.40
2022-10-26T06:39:42.195Z,13.60
2022-10-26T06:42:45.037Z,12.23
2022-10-26T06:45:52.102Z,12.90
2022-10-26T06:49:10.971Z,14.23
2022-10-26T06:52:25.619Z,13.80
2022-10-26T06:55:37.394Z,14.30
2022-10-26T06:58:41.317Z,14.18
2022-10-26T07:01:44.299Z,13.65
2022-10-26T07:04:47.408Z,12.80
2022-10-26T07:10:52.826Z,14.70
2022-10-26T07:13:55.569Z,15.18
2022-10-26T07:16:57.970Z,13.75
2022-10-26T07:20:00.550Z,15.17
2022-10-26T07:23:02.907Z,15.50
2022-10-26T07:26:05.657Z,15.50
2022-10-26T07:29:08.119Z,14.43
2022-10-26T07:32:10.764Z,17.35
2022-10-26T07:35:13.143Z,16.45
2022-10-26T07:38:15.641Z,18.10
2022-10-26T07:41:17.977Z,17.20
2022-10-26T07:44:20.487Z,14.70
2022-10-26T07:47:22.922Z,15.00
2022-10-26T07:50:25.894Z,16.83
2022-10-26T07:53:28.362Z,15.43
2022-10-26T07:56:30.944Z,15.30
2022-10-26T07:59:33.348Z,12.80
2022-10-26T08:02:36.467Z,13.57
2022-10-26T08:05:39.007Z,13.65
2022-10-26T08:08:44.951Z,15.80
2022-10-26T08:11:49.875Z,12.98
2022-10-26T08:14:52.166Z,13.07
2022-10-26T08:17:54.648Z,12.52
2022-10-26T08:21:10.690Z,14.07
2022-10-26T08:24:14.918Z,11.80
2022-10-26T08:27:17.842Z,13.23
2022-10-26T08:30:20.762Z,12.02
2022-10-26T08:33:24.078Z,13.90
2022-10-26T08:39:30.859Z,14.73
2022-10-26T08:42:42.911Z,13.02
2022-10-26T08:45:56.711Z,13.57
2022-10-26T08:49:14.752Z,15.35
2022-10-26T08:52:20.460Z,16.52
2022-10-26T08:55:28.918Z,16.12
2022-10-26T08:58:39.817Z,15.48
2022-10-26T09:01:42.731Z,14.43
2022-10-26T09:04:45.501Z,12.50
2022-10-26T09:07:53.385Z,12.65
2022-10-26T09:11:17.926Z,12.23
2022-10-26T09:14:38.317Z,11.88
2022-10-26T09:17:46.680Z,10.50
2022-10-26T09:21:03.499Z,10.00
2022-10-26T09:24:21.982Z,9.40
2022-10-26T09:27:34.730Z,10.15
2022-10-26T09:30:37.802Z,10.48
2022-10-26T09:36:42.967Z,8.80
2022-10-26T09:39:54.948Z,9.57
2022-10-26T09:42:59.982Z,10.15
2022-10-26T09:46:02.642Z,8.25
2022-10-26T09:49:08.604Z,7.30
2022-10-26T09:55:20.748Z,6.37
2022-10-26T09:58:28.795Z,6.03
2022-10-26T10:01:36.853Z,7.32
2022-10-26T10:04:48.176Z,6.32
2022-10-26T10:07:51.206Z,6.85
2022-10-26T10:10:59.183Z,6.03
2022-10-26T10:14:08.788Z,6.80
2022-10-26T10:17:22.660Z,6.50
2022-10-26T10:20:31.740Z,7.65
2022-10-26T10:23:49.771Z,6.87
2022-10-26T10:26:59.526Z,7.47
2022-10-26T10:30:22.431Z,7.30
2022-10-26T10:33:36.018Z,9.50
2022-10-26T10:36:40.025Z,9.50
2022-10-26T10:39:42.907Z,8.77
2022-10-26T10:42:47.704Z,8.90
2022-10-26T10:45:54.736Z,9.43
2022-10-26T10:49:06.666Z,9.25
2022-10-26T10:52:23.053Z,8.98
2022-10-26T10:55:26.897Z,9.80
2022-10-26T10:58:38.490Z,9.82
2022-10-26T11:01:52.155Z,10.07
2022-10-26T11:05:04.482Z,12.43
2022-10-26T11:08:12.600Z,10.77
2022-10-26T11:11:40.581Z,10.52
2022-10-26T11:14:52.383Z,11.35
2022-10-26T11:18:05.092Z,10.65
2022-10-26T11:21:28.959Z,12.02
2022-10-26T11:24:43.883Z,11.38
2022-10-26T11:27:55.923Z,12.30
2022-10-26T11:31:03.409Z,11.85
2022-10-26T11:34:46.146Z,12.55
2022-10-26T11:38:05.511Z,11.98
2022-10-26T11:41:26.036Z,15.48
2022-10-26T11:44:37.966Z,13.07
2022-10-26T11:47:48.153Z,12.85
2022-10-26T11:50:55.027Z,13.05
2022-10-26T11:54:06.130Z,15.43
2022-10-26T11:57:10.380Z,15.43
2022-10-26T12:00:13.028Z,17.37
2022-10-26T12:03:26.972Z,16.12
2022-10-26T12:06:33.081Z,15.98
2022-10-26T12:09:38.878Z,16.80
2022-10-26T12:13:08.870Z,17.02
2022-10-26T12:16:42.770Z,15.68
2022-10-26T12:19:51.388Z,16.75
2022-10-26T12:22:54.121Z,16.02
2022-10-26T12:26:24.365Z,16.90
2022-10-26T12:29:31.578Z,15.15
2022-10-26T12:32:33.797Z,16.67
2022-10-26T12:35:39.331Z,17.63
2022-10-26T12:38:41.586Z,15.68
2022-10-26T12:41:56.155Z,17.67
2022-10-26T12:44:58.404Z,15.70
2022-10-26T12:48:10.671Z,18.25
2022-10-26T12:51:24.554Z,16.45
2022-10-26T12:54:45.881Z,18.08
2022-10-26T12:58:00.178Z,14.98
2022-10-26T13:01:03.434Z,16.33
2022-10-26T13:04:38.318Z,16.17
2022-10-26T13:07:41.762Z,14.87
2022-10-26T13:11:13.957Z,17.37
2022-10-26T13:14:21.936Z,14.68
2022-10-26T13:17:27.174Z,15.32
2022-10-26T13:20:31.920Z,17.60
2022-10-26T13:23:37.791Z,14.07
2022-10-26T13:27:19.430Z,14.48
2022-10-26T13:30:46.248Z,14.05
2022-10-26T13:33:52.341Z,16.77
2022-10-26T13:37:14.153Z,14.73
2022-10-26T13:40:23.377Z,15.63
2022-10-26T13:43:27.406Z,14.15
2022-10-26T13:46:35.708Z,13.73
2022-10-26T13:49:44.216Z,15.18
2022-10-26T13:53:01.096Z,14.07
2022-10-26T13:56:21.715Z,13.15
2022-10-26T13:59:26.526Z,14.18
2022-10-26T14:02:32.435Z,15.38
2022-10-26T14:05:50.867Z,14.00
2022-10-26T14:08:57.610Z,12.57
2022-10-26T14:12:02.107Z,12.75
2022-10-26T14:15:09.164Z,12.60
2022-10-26T14:18:18.064Z,11.40
2022-10-26T14:21:22.616Z,10.63
2022-10-26T14:24:45.646Z,10.88
2022-10-26T14:27:49.716Z,12.35
2022-10-26T14:33:57.150Z,12.00
2022-10-26T14:37:04.999Z,9.45
2022-10-26T14:40:15.861Z,10.88
2022-10-26T14:43:22.909Z,10.07
2022-10-26T14:46:27.216Z,10.02
2022-10-26T14:49:30.095Z,10.82
2022-10-26T14:52:35.858Z,9.07
2022-10-26T14:55:50.959Z,10.20
2022-10-26T14:58:53.793Z,9.55
2022-10-26T15:02:18.137Z,9.95
2022-10-26T15:05:23.619Z,8.48
2022-10-26T15:08:55.832Z,9.98
2022-10-26T15:11:59.619Z,8.90
2022-10-26T15:18:23.714Z,9.30
2022-10-26T15:21:40.130Z,9.23
2022-10-26T15:24:43.351Z,8.50
2022-10-26T15:27:47.944Z,8.05
2022-10-26T15:31:23.401Z,9.23
2022-10-26T15:34:26.196Z,9.40
2022-10-26T15:37:28.580Z,9.35
2022-10-26T15:40:31.921Z,10.77
2022-10-26T15:43:34.219Z,11.57
